Terminal Aerodrome Forecast
Issued by NWS

Home | Current Version | Previous Version | Text Only | Print | Product List | Glossary On
Versions: 1 2 3 4 5 6 7 8 9 10 11 12 13 14 15 16 17 18
000
FTAK31 PANC 162338
TAFADL
TAF
PADL 162338Z 1700/1724 35008KT P6SM SCT070 OVC100
     FM170130 35015G22KT 1SM -SN SCT008 OVC015
     FM170300 35014KT 4SM -SN BKN025 OVC040
     FM170800 34011KT 2SM -SN BKN008 OVC012
     FM171300 33009KT 6SM -SHSN BKN025 OVC040=

USA.gov is the U.S. government's official web portal to all federal, state and local government web resources and services.